Time;durP1;ratioP1;P1;durP2;ratioP2;P2;SDS_P1;SDS_P2;PMS_P1;PMS_P2;Temp;Humidity;BMP_temperature;BMP_pressure;BME280_temperature;BME280_humidity;BME280_pressure;Samples;Min_cycle;Max_cycle;Signal;HPM_P1;HPM_P2
2023/05/21 00:01:42;;;;;;;19.42;15.30;;;;;;;15.25;72.47;101366.44;7399255;19;20036;-68
2023/05/21 00:04:11;;;;;;;22.83;17.75;;;;;;;15.22;72.60;101363.03;7397602;19;20022;-68
2023/05/21 00:06:40;;;;;;;20.10;16.00;;;;;;;15.19;72.62;101371.03;7399171;19;20023;-68
2023/05/21 00:09:11;;;;;;;19.83;15.68;;;;;;;15.17;72.59;101364.94;7398878;19;20022;-68
2023/05/21 00:11:42;;;;;;;20.02;16.67;;;;;;;15.11;72.73;101360.69;7398106;19;20078;-68
2023/05/21 00:14:11;;;;;;;20.63;15.98;;;;;;;15.07;72.93;101357.28;7396619;19;20027;-67
2023/05/21 00:16:39;;;;;;;20.95;15.82;;;;;;;15.03;72.99;101355.66;7398851;19;20071;-67
2023/05/21 00:19:09;;;;;;;20.35;17.55;;;;;;;14.98;73.13;101352.28;7398730;19;20015;-68
2023/05/21 00:21:38;;;;;;;19.48;17.25;;;;;;;14.95;73.50;101352.34;7398301;19;20492;-68
2023/05/21 00:24:07;;;;;;;19.17;17.02;;;;;;;14.91;73.67;101356.00;7397168;19;20014;-68
2023/05/21 00:26:36;;;;;;;21.15;16.92;;;;;;;14.86;73.91;101355.28;7398442;19;20023;-68
2023/05/21 00:29:07;;;;;;;19.55;16.67;;;;;;;14.82;74.07;101352.75;7398393;19;20027;-68
2023/05/21 00:31:35;;;;;;;19.58;16.33;;;;;;;14.76;74.23;101350.28;7397627;19;20014;-69
2023/05/21 00:34:04;;;;;;;24.67;16.23;;;;;;;14.72;74.62;101353.06;7396957;19;20022;-68
2023/05/21 00:36:33;;;;;;;19.45;16.83;;;;;;;14.68;74.74;101346.16;7398146;19;20474;-68
2023/05/21 00:39:01;;;;;;;25.50;17.38;;;;;;;14.64;74.58;101340.06;7398102;19;20027;-68
2023/05/21 00:41:30;;;;;;;20.13;17.67;;;;;;;14.60;75.00;101341.91;7396790;19;20378;-68
2023/05/21 00:43:59;;;;;;;22.08;17.13;;;;;;;14.56;75.27;101342.91;7396221;19;20362;-68
2023/05/21 00:46:30;;;;;;;19.75;17.65;;;;;;;14.52;75.42;101349.19;7397334;19;20478;-68
2023/05/21 00:48:59;;;;;;;23.02;18.55;;;;;;;14.49;75.58;101341.34;7397425;19;20035;-68
2023/05/21 00:51:29;;;;;;;21.15;17.85;;;;;;;14.46;75.85;101342.31;7396822;19;20074;-67
2023/05/21 00:53:58;;;;;;;22.60;18.13;;;;;;;14.44;75.98;101344.13;7396502;19;20034;-68
2023/05/21 00:56:28;;;;;;;21.25;17.30;;;;;;;14.43;76.14;101336.25;7397113;19;20018;-68
2023/05/21 00:58:58;;;;;;;22.45;18.77;;;;;;;14.42;76.34;101337.16;7397361;19;20018;-67
2023/05/21 01:01:32;;;;;;;26.55;19.25;;;;;;;14.39;76.48;101338.09;7397424;19;20014;-68
2023/05/21 01:04:03;;;;;;;20.80;17.10;;;;;;;14.35;76.52;101323.28;7395010;19;20041;-68
2023/05/21 01:06:33;;;;;;;23.45;18.90;;;;;;;14.33;76.83;101327.72;7397143;19;20014;-69
2023/05/21 01:09:05;;;;;;;21.90;19.48;;;;;;;14.30;76.85;101328.66;7397091;19;20365;-68
2023/05/21 01:11:40;;;;;;;23.17;17.90;;;;;;;14.27;77.15;101326.13;7396177;19;20373;-69
2023/05/21 01:14:11;;;;;;;22.63;18.63;;;;;;;14.25;77.04;101319.16;7396115;19;20014;-68
2023/05/21 01:16:45;;;;;;;20.33;17.92;;;;;;;14.23;77.38;101319.22;7396482;19;20015;-68
2023/05/21 01:19:18;;;;;;;22.75;19.15;;;;;;;14.19;77.58;101320.19;7396434;19;20482;-67
2023/05/21 01:21:48;;;;;;;22.05;19.48;;;;;;;14.13;77.62;101313.31;7397158;19;20035;-68
2023/05/21 01:24:20;;;;;;;22.17;18.90;;;;;;;14.12;77.81;101311.56;7396179;19;20026;-68
2023/05/21 01:26:49;;;;;;;24.48;18.98;;;;;;;14.09;78.06;101311.69;7397014;19;20358;-68
2023/05/21 01:29:18;;;;;;;22.90;19.00;;;;;;;14.05;77.87;101304.72;7396514;19;20026;-68
2023/05/21 01:32:01;;;;;;;21.73;18.67;;;;;;;14.04;78.33;101313.56;7395542;19;20015;-67
2023/05/21 01:34:35;;;;;;;24.02;20.48;;;;;;;14.01;78.32;101316.28;7394958;19;20035;-68
2023/05/21 01:37:14;;;;;;;25.20;20.02;;;;;;;14.00;78.50;101314.53;7396627;19;20018;-68
2023/05/21 01:39:48;;;;;;;24.42;19.38;;;;;;;13.96;78.52;101311.16;7396688;19;20021;-68
2023/05/21 01:42:19;;;;;;;24.15;19.88;;;;;;;13.93;78.63;101308.56;7394878;19;20027;-68
2023/05/21 01:44:48;;;;;;;26.80;20.92;;;;;;;13.93;78.78;101310.38;7394146;19;20023;-68
2023/05/21 01:47:19;;;;;;;24.98;20.65;;;;;;;13.89;78.90;101303.41;7395949;19;20035;-67
2023/05/21 01:49:48;;;;;;;25.35;20.77;;;;;;;13.86;79.05;101301.72;7396321;19;20031;-68
2023/05/21 01:52:16;;;;;;;24.38;21.08;;;;;;;13.82;79.01;101297.44;7394742;19;20035;-68
2023/05/21 01:54:48;;;;;;;23.35;19.98;;;;;;;13.78;79.46;101299.28;7394172;19;20022;-68
2023/05/21 01:57:17;;;;;;;24.02;21.45;;;;;;;13.75;79.63;101296.75;7396119;19;20018;-68
2023/05/21 01:59:46;;;;;;;22.35;19.58;;;;;;;13.72;79.75;101293.31;7395194;19;20081;-68
2023/05/21 02:02:15;;;;;;;22.63;20.23;;;;;;;13.70;79.79;101293.38;7395522;19;20010;-68
2023/05/21 02:04:45;;;;;;;23.55;21.00;;;;;;;13.66;80.00;101289.94;7393355;19;20022;-68
2023/05/21 02:07:13;;;;;;;23.17;20.65;;;;;;;13.64;80.07;101290.88;7395359;19;20018;-68
2023/05/21 02:09:42;;;;;;;24.75;21.15;;;;;;;13.61;80.30;101288.31;7395148;19;20010;-68
2023/05/21 02:12:13;;;;;;;23.30;20.15;;;;;;;13.58;80.20;101288.41;7394123;19;20023;-67
2023/05/21 02:14:42;;;;;;;23.45;20.75;;;;;;;13.55;80.68;101283.19;7393195;19;20022;-68
2023/05/21 02:17:10;;;;;;;25.20;21.20;;;;;;;13.52;80.70;101279.75;7400486;19;20014;-68
2023/05/21 02:19:38;;;;;;;26.38;21.08;;;;;;;13.50;80.82;101276.28;7402963;19;20031;-68
2023/05/21 02:22:07;;;;;;;24.73;21.17;;;;;;;13.47;80.87;101278.13;7402650;19;20027;-68
2023/05/21 02:24:35;;;;;;;24.50;20.70;;;;;;;13.42;81.10;101273.00;7399984;19;20045;-68
2023/05/21 02:27:05;;;;;;;27.00;21.60;;;;;;;13.39;81.07;101277.47;7402484;19;20035;-68
2023/05/21 02:29:36;;;;;;;28.33;21.80;;;;;;;13.34;81.10;101282.81;7402388;19;20011;-68
2023/05/21 02:32:04;;;;;;;25.13;21.38;;;;;;;13.25;81.42;101275.13;7400541;19;20426;-68
2023/05/21 02:34:36;;;;;;;24.05;21.00;;;;;;;13.25;81.49;101277.78;7399394;19;20436;-67
2023/05/21 02:37:05;;;;;;;26.38;22.38;;;;;;;13.22;81.60;101275.19;7402504;19;20030;-67
2023/05/21 02:39:33;;;;;;;25.90;21.98;;;;;;;13.18;81.51;101269.13;7402055;19;20047;-67
2023/05/21 02:42:02;;;;;;;26.15;21.67;;;;;;;13.16;81.86;101271.81;7400211;19;20073;-67
2023/05/21 02:44:30;;;;;;;26.23;22.10;;;;;;;13.12;81.86;101272.78;7399505;19;20095;-68
2023/05/21 02:47:01;;;;;;;26.52;22.13;;;;;;;13.08;81.76;101268.50;7401458;19;20022;-68
2023/05/21 02:49:30;;;;;;;24.48;21.98;;;;;;;13.06;81.93;101270.31;7402141;19;20031;-67
2023/05/21 02:51:58;;;;;;;26.67;22.90;;;;;;;13.03;82.11;101267.75;7400223;19;20014;-68
2023/05/21 02:54:27;;;;;;;28.52;22.95;;;;;;;12.99;81.99;101271.34;7399345;19;20027;-68
2023/05/21 02:56:55;;;;;;;26.27;23.35;;;;;;;12.96;82.37;101266.16;7401550;19;20023;-68
2023/05/21 02:59:24;;;;;;;26.75;22.40;;;;;;;12.92;82.42;101267.13;7401069;19;20025;-68
2023/05/21 03:01:52;;;;;;;26.85;22.55;;;;;;;12.88;82.48;101268.97;7401267;19;20019;-68
2023/05/21 03:04:23;;;;;;;29.67;24.48;;;;;;;12.86;82.73;101269.00;7399006;19;20037;-67
2023/05/21 03:06:54;;;;;;;28.52;22.30;;;;;;;12.81;82.64;101268.22;7401568;19;20018;-67
2023/05/21 03:09:23;;;;;;;27.83;24.30;;;;;;;12.77;83.01;101268.34;7401515;19;20029;-68
2023/05/21 03:11:52;;;;;;;26.05;23.23;;;;;;;12.70;83.07;101265.84;7400221;19;20371;-68
2023/05/21 03:14:20;;;;;;;26.08;23.33;;;;;;;12.71;83.16;101269.34;7398857;19;20031;-67
2023/05/21 03:16:50;;;;;;;27.55;24.52;;;;;;;12.69;83.30;101261.47;7400869;19;20027;-68
2023/05/21 03:19:19;;;;;;;29.13;23.25;;;;;;;12.69;83.13;101271.16;7400802;19;20018;-68
2023/05/21 03:21:50;;;;;;;28.52;24.48;;;;;;;12.69;83.49;101268.53;7400357;19;20421;-67
2023/05/21 03:24:19;;;;;;;29.52;24.65;;;;;;;12.69;83.33;101268.53;7398841;19;20018;-67
2023/05/21 03:26:49;;;;;;;30.23;24.23;;;;;;;12.69;83.51;101272.00;7399821;19;20031;-68
2023/05/21 03:29:17;;;;;;;27.40;24.05;;;;;;;12.68;83.49;101272.91;7400155;19;20039;-68
2023/05/21 03:31:46;;;;;;;31.85;25.05;;;;;;;12.69;83.74;101268.53;7399857;19;20035;-67
2023/05/21 03:34:14;;;;;;;26.33;23.48;;;;;;;12.69;83.62;101268.53;7397818;19;20023;-67
2023/05/21 03:36:43;;;;;;;28.88;24.40;;;;;;;12.69;83.72;101265.91;7400237;19;20046;-68
2023/05/21 03:39:14;;;;;;;30.02;25.27;;;;;;;12.69;84.13;101263.25;7399644;19;20384;-68
2023/05/21 03:41:43;;;;;;;27.75;23.52;;;;;;;12.67;84.11;101258.00;7399737;19;20010;-67
2023/05/21 03:44:12;;;;;;;31.38;26.55;;;;;;;12.70;84.04;101262.34;7398098;19;20027;-67
2023/05/21 03:46:41;;;;;;;29.33;24.27;;;;;;;12.71;84.26;101261.44;7399859;19;20018;-67
2023/05/21 03:49:09;;;;;;;28.55;24.30;;;;;;;12.72;84.28;101263.19;7399811;19;20036;-67
2023/05/21 03:51:38;;;;;;;32.88;25.27;;;;;;;12.74;84.37;101264.03;7398881;19;20385;-67
2023/05/21 03:54:06;;;;;;;34.22;26.45;;;;;;;12.76;84.35;101256.09;7397601;19;20488;-67
2023/05/21 03:56:37;;;;;;;31.08;25.88;;;;;;;12.78;84.64;101257.78;7399148;19;20090;-67
2023/05/21 03:59:06;;;;;;;29.85;25.38;;;;;;;12.81;84.43;101256.84;7399934;19;20031;-67
2023/05/21 04:01:35;;;;;;;29.58;24.83;;;;;;;12.84;84.58;101256.78;7399312;19;20373;-68
2023/05/21 04:04:10;;;;;;;33.05;25.98;;;;;;;12.87;84.68;101261.97;7397663;19;20022;-67
2023/05/21 04:06:41;;;;;;;29.73;26.52;;;;;;;12.91;84.70;101260.13;7399566;19;20018;-68
2023/05/21 04:09:15;;;;;;;28.52;25.35;;;;;;;12.94;84.65;101263.56;7399554;19;20011;-67
2023/05/21 04:11:46;;;;;;;30.00;26.73;;;;;;;12.96;84.59;101261.75;7398286;19;20019;-68
2023/05/21 04:14:15;;;;;;;28.25;25.08;;;;;;;13.03;84.63;101262.50;7397539;19;20023;-67
2023/05/21 04:16:47;;;;;;;28.25;25.00;;;;;;;13.07;84.66;101263.25;7398445;19;20347;-68
2023/05/21 04:19:16;;;;;;;30.45;26.33;;;;;;;13.12;84.75;101271.94;7398917;19;20018;-67
2023/05/21 04:21:45;;;;;;;30.55;27.25;;;;;;;13.16;84.76;101274.44;7398063;19;20027;-67
2023/05/21 04:24:13;;;;;;;30.38;25.50;;;;;;;13.22;84.71;101275.19;7396973;19;20010;-67
2023/05/21 04:26:43;;;;;;;32.42;27.40;;;;;;;13.27;84.76;101278.59;7398398;19;20027;-67
2023/05/21 04:29:16;;;;;;;31.38;27.75;;;;;;;13.32;84.86;101274.06;7398073;19;20015;-67
2023/05/21 04:31:45;;;;;;;33.28;28.75;;;;;;;13.35;84.95;101277.50;7398072;19;20018;-68
2023/05/21 04:34:16;;;;;;;34.70;29.65;;;;;;;13.41;84.94;101278.28;7396356;19;20506;-67
2023/05/21 04:36:45;;;;;;;32.55;28.27;;;;;;;13.46;84.87;101273.78;7398531;19;20019;-67
2023/05/21 04:39:14;;;;;;;34.60;30.77;;;;;;;13.52;84.99;101286.78;7395875;19;20011;-67
2023/05/21 04:41:43;;;;;;;32.13;28.65;;;;;;;13.56;85.07;101292.84;7397282;19;20021;-67
2023/05/21 04:44:15;;;;;;;34.28;30.17;;;;;;;13.61;85.13;101285.69;7396555;19;20014;-67
2023/05/21 04:46:44;;;;;;;35.00;28.77;;;;;;;13.64;84.93;101286.47;7397854;19;20031;-67
2023/05/21 04:49:14;;;;;;;34.35;30.35;;;;;;;13.67;85.08;101278.50;7397310;19;20020;-68
2023/05/21 04:51:42;;;;;;;35.50;30.75;;;;;;;13.74;84.99;101283.63;7397651;19;20019;-67
2023/05/21 04:54:11;;;;;;;37.92;31.25;;;;;;;13.77;85.07;101284.38;7395187;19;20485;-67
2023/05/21 04:56:39;;;;;;;36.00;30.77;;;;;;;13.81;84.92;101285.16;7397471;19;20022;-67
2023/05/21 04:59:08;;;;;;;37.08;30.75;;;;;;;13.84;85.01;101287.72;7397440;19;20031;-67
2023/05/21 05:01:40;;;;;;;34.13;30.40;;;;;;;13.89;84.97;101283.19;7397321;19;20023;-67
2023/05/21 05:04:08;;;;;;;34.83;30.75;;;;;;;13.92;85.09;101287.53;7396162;19;20081;-67
2023/05/21 05:06:37;;;;;;;37.65;31.55;;;;;;;13.96;85.24;101283.88;7397158;19;20022;-68
2023/05/21 05:09:06;;;;;;;38.85;33.40;;;;;;;13.98;85.22;101282.94;7397169;19;20027;-68
2023/05/21 05:11:34;;;;;;;40.67;32.13;;;;;;;14.02;85.14;101278.44;7396890;19;20022;-68
2023/05/21 05:14:03;;;;;;;41.67;33.78;;;;;;;14.05;84.91;101272.22;7394956;19;20018;-67
2023/05/21 05:16:31;;;;;;;37.92;33.80;;;;;;;14.08;85.21;101273.00;7396785;19;20022;-68
2023/05/21 05:19:02;;;;;;;37.75;32.97;;;;;;;14.11;84.92;101274.69;7396349;19;20031;-68
2023/05/21 05:21:32;;;;;;;38.72;31.92;;;;;;;14.14;85.22;101277.22;7397193;19;20376;-67
2023/05/21 05:24:00;;;;;;;40.22;35.13;;;;;;;14.17;84.97;101270.09;7395498;19;20015;-68
2023/05/21 05:26:28;;;;;;;37.95;33.88;;;;;;;14.21;85.27;101273.50;7396624;19;20070;-68
2023/05/21 05:28:57;;;;;;;43.88;35.70;;;;;;;14.24;85.21;101267.28;7396516;19;20023;-67
2023/05/21 05:31:25;;;;;;;42.20;35.70;;;;;;;14.26;85.21;101260.19;7396040;19;20481;-67
2023/05/21 05:33:54;;;;;;;40.88;34.90;;;;;;;14.28;85.44;101264.53;7394899;19;20038;-68
2023/05/21 05:36:25;;;;;;;38.28;34.08;;;;;;;14.32;85.17;101267.94;7396076;19;20022;-67
2023/05/21 05:38:54;;;;;;;37.78;33.25;;;;;;;14.35;85.56;101270.47;7396762;19;20025;-68
2023/05/21 05:41:22;;;;;;;40.35;34.60;;;;;;;14.41;85.20;101265.03;7396073;19;20014;-68
2023/05/21 05:43:51;;;;;;;41.22;35.40;;;;;;;14.47;85.49;101266.63;7394634;19;20024;-67
2023/05/21 05:46:19;;;;;;;44.97;35.45;;;;;;;14.50;85.41;101267.38;7395734;19;20015;-68
2023/05/21 05:48:48;;;;;;;42.75;36.22;;;;;;;14.57;85.49;101262.81;7395837;19;20010;-68
2023/05/21 05:51:17;;;;;;;41.38;35.15;;;;;;;14.62;85.46;101266.16;7394976;19;20014;-67
2023/05/21 05:53:48;;;;;;;44.25;35.65;;;;;;;14.69;85.68;101264.22;7394447;19;20015;-68
2023/05/21 05:56:17;;;;;;;38.83;34.30;;;;;;;14.76;85.55;101267.53;7395793;19;20018;-68
2023/05/21 05:58:45;;;;;;;44.50;36.65;;;;;;;14.83;85.52;101264.66;7395227;19;20010;-67
2023/05/21 06:01:14;;;;;;;46.30;37.50;;;;;;;14.91;85.39;101261.78;7395084;19;20019;-67
2023/05/21 06:03:42;;;;;;;40.60;36.10;;;;;;;15.00;85.47;101265.91;7393917;19;20015;-68
2023/05/21 06:06:11;;;;;;;42.15;36.58;;;;;;;15.06;85.25;101255.13;7394888;19;20023;-68
2023/05/21 06:08:40;;;;;;;44.58;37.25;;;;;;;15.15;85.51;101265.41;7395316;19;20019;-67
2023/05/21 06:11:11;;;;;;;44.13;37.28;;;;;;;15.24;85.25;101258.97;7395160;19;20027;-67
2023/05/21 06:13:39;;;;;;;52.25;39.00;;;;;;;15.35;85.22;101260.38;7394402;19;20039;-67
2023/05/21 06:16:08;;;;;;;44.85;37.38;;;;;;;15.42;85.03;101260.13;7395136;19;20041;-67
2023/05/21 06:18:37;;;;;;;44.05;37.17;;;;;;;15.55;84.55;101259.72;7395143;19;20042;-67
2023/05/21 06:21:05;;;;;;;43.08;35.55;;;;;;;15.63;84.21;101257.66;7394845;19;20028;-67
2023/05/21 06:23:35;;;;;;;42.20;36.25;;;;;;;15.75;84.22;101256.38;7393981;19;20031;-67
2023/05/21 06:26:04;;;;;;;39.53;32.50;;;;;;;15.86;83.79;101253.38;7394439;19;20019;-67
2023/05/21 06:28:35;;;;;;;42.58;34.95;;;;;;;15.96;83.58;101252.09;7394423;19;20086;-67
2023/05/21 06:31:03;;;;;;;37.85;33.85;;;;;;;16.07;83.22;101249.94;7394883;19;20011;-67
2023/05/21 06:33:32;;;;;;;35.38;31.48;;;;;;;16.19;82.70;101250.41;7393507;19;20022;-67
2023/05/21 06:36:00;;;;;;;37.95;31.92;;;;;;;16.29;82.45;101249.16;7394597;19;20015;-67
2023/05/21 06:38:29;;;;;;;36.83;29.77;;;;;;;16.42;81.83;101253.06;7394178;19;20423;-67
2023/05/21 06:40:57;;;;;;;35.47;30.88;;;;;;;16.52;81.33;101248.28;7394252;19;20025;-67
2023/05/21 06:43:27;;;;;;;35.70;30.33;;;;;;;16.64;80.99;101246.94;7391790;19;20031;-68
2023/05/21 06:45:58;;;;;;;33.03;29.48;;;;;;;16.75;80.55;101246.50;7394026;19;20014;-66
2023/05/21 06:48:27;;;;;;;35.28;30.10;;;;;;;16.86;80.35;101244.31;7394438;19;20015;-66
2023/05/21 06:50:55;;;;;;;32.53;28.30;;;;;;;16.93;79.73;101242.28;7393512;19;20390;-66
2023/05/21 06:53:24;;;;;;;32.85;28.30;;;;;;;17.05;79.59;101241.78;7392786;19;20481;-66
2023/05/21 06:55:53;;;;;;;32.58;28.05;;;;;;;17.15;79.41;101250.25;7393932;19;20047;-67
2023/05/21 06:58:21;;;;;;;35.33;29.42;;;;;;;17.23;79.06;101244.63;7393971;19;20370;-66
2023/05/21 07:00:50;;;;;;;35.08;28.85;;;;;;;17.32;78.63;101246.03;7393475;19;20372;-67
2023/05/21 07:03:21;;;;;;;33.13;27.85;;;;;;;17.40;78.16;101239.47;7398202;19;20439;-67
2023/05/21 07:05:50;;;;;;;31.38;28.05;;;;;;;17.49;77.63;101237.34;7401227;19;20014;-66
2023/05/21 07:08:18;;;;;;;30.58;27.27;;;;;;;17.57;77.40;101244.03;7400711;19;20482;-66
2023/05/21 07:10:47;;;;;;;31.75;28.33;;;;;;;17.65;77.07;101242.84;7400758;19;20021;-67
2023/05/21 07:13:15;;;;;;;30.58;27.40;;;;;;;17.72;76.73;101246.97;7399663;19;20022;-67
2023/05/21 07:15:44;;;;;;;31.17;25.85;;;;;;;17.81;76.50;101237.75;7400710;19;20014;-68
2023/05/21 07:18:13;;;;;;;30.90;27.00;;;;;;;17.91;76.07;101244.34;7400955;19;20032;-68
2023/05/21 07:20:44;;;;;;;30.65;27.30;;;;;;;17.97;75.91;101228.19;7400527;19;20017;-68
2023/05/21 07:23:12;;;;;;;29.48;26.08;;;;;;;18.06;75.36;101235.72;7399983;19;20036;-68
2023/05/21 07:25:41;;;;;;;27.88;24.85;;;;;;;18.16;75.31;101230.88;7400352;19;20086;-68
2023/05/21 07:28:09;;;;;;;28.38;25.20;;;;;;;18.25;75.35;101234.91;7400052;19;20028;-67
2023/05/21 07:30:38;;;;;;;31.48;25.45;;;;;;;18.36;74.55;101229.94;7400252;19;20024;-67
2023/05/21 07:33:06;;;;;;;32.47;24.88;;;;;;;18.47;74.34;101224.13;7399514;19;20031;-68
2023/05/21 07:35:35;;;;;;;28.23;25.10;;;;;;;18.56;73.89;101228.13;7400043;19;20074;-67
2023/05/21 07:38:06;;;;;;;28.15;25.25;;;;;;;18.66;73.28;101232.06;7399804;19;20090;-68
2023/05/21 07:40:34;;;;;;;28.65;24.35;;;;;;;18.76;73.55;101221.00;7400237;19;20078;-68
2023/05/21 07:43:03;;;;;;;26.63;23.83;;;;;;;18.87;73.14;101226.66;7397936;19;20418;-67
2023/05/21 07:45:31;;;;;;;26.73;23.55;;;;;;;18.97;72.33;101224.44;7399881;19;20503;-68
2023/05/21 07:48:00;;;;;;;27.60;24.70;;;;;;;19.07;72.17;101216.84;7399061;19;20394;-68
2023/05/21 07:50:28;;;;;;;29.50;24.90;;;;;;;19.17;71.51;101220.78;7399145;19;20022;-68
2023/05/21 07:52:57;;;;;;;27.02;23.67;;;;;;;19.26;71.28;101220.31;7398772;19;20031;-68
2023/05/21 07:55:28;;;;;;;25.45;22.88;;;;;;;19.35;71.28;101214.53;7399185;19;20010;-68
2023/05/21 07:57:56;;;;;;;25.48;22.77;;;;;;;19.47;70.67;101217.50;7399807;19;20023;-68
2023/05/21 08:00:25;;;;;;;26.17;23.38;;;;;;;19.57;70.50;101218.72;7399424;19;20070;-68
2023/05/21 08:02:54;;;;;;;26.02;23.02;;;;;;;19.66;70.07;101218.28;7398182;19;20477;-68
2023/05/21 08:05:24;;;;;;;24.27;21.80;;;;;;;19.76;69.33;101217.78;7398299;19;20368;-68
2023/05/21 08:07:52;;;;;;;25.95;23.20;;;;;;;19.85;68.94;101219.97;7399148;19;20026;-68
2023/05/21 08:10:21;;;;;;;24.50;21.90;;;;;;;19.96;68.78;101222.06;7398676;19;20032;-68
2023/05/21 08:12:52;;;;;;;24.42;21.17;;;;;;;20.05;67.97;101220.72;7397883;19;20023;-68
2023/05/21 08:15:21;;;;;;;24.33;21.67;;;;;;;20.14;68.06;101221.09;7394627;19;20025;-68
2023/05/21 08:17:49;;;;;;;23.88;21.35;;;;;;;20.24;67.55;101213.44;7398439;19;20041;-68
2023/05/21 08:20:19;;;;;;;23.23;20.67;;;;;;;20.34;67.51;101211.97;7398242;19;20481;-69
2023/05/21 08:22:48;;;;;;;23.58;20.95;;;;;;;20.46;66.84;101221.09;7396849;19;20010;-69
2023/05/21 08:25:17;;;;;;;24.75;21.70;;;;;;;20.56;66.71;101216.13;7397538;19;20014;-68
2023/05/21 08:27:45;;;;;;;22.92;20.63;;;;;;;20.66;65.99;101211.09;7397768;19;20502;-68
2023/05/21 08:30:16;;;;;;;21.85;19.63;;;;;;;20.77;65.21;101210.53;7398311;19;20019;-69
2023/05/21 08:32:45;;;;;;;23.90;20.27;;;;;;;20.87;64.80;101218.88;7397569;19;20027;-69
2023/05/21 08:35:13;;;;;;;22.23;19.85;;;;;;;20.96;64.38;101213.84;7395631;19;20014;-68
2023/05/21 08:37:42;;;;;;;22.30;19.80;;;;;;;21.07;64.05;101210.56;7397823;19;20022;-68
2023/05/21 08:40:12;;;;;;;20.27;18.27;;;;;;;21.18;63.75;101217.06;7397332;19;20507;-68
2023/05/21 08:42:45;;;;;;;22.35;20.15;;;;;;;21.29;63.40;101214.63;7396547;19;20014;-68
2023/05/21 08:45:23;;;;;;;23.83;21.13;;;;;;;21.39;62.99;101210.47;7397867;19;20018;-68
2023/05/21 08:47:57;;;;;;;22.33;20.10;;;;;;;21.50;62.63;101212.50;7396938;19;20493;-68
2023/05/21 08:50:28;;;;;;;27.83;21.10;;;;;;;21.60;62.05;101208.34;7397293;19;20015;-69
2023/05/21 08:52:57;;;;;;;22.52;20.27;;;;;;;21.71;62.38;101209.50;7397763;19;20351;-68
2023/05/21 08:55:26;;;;;;;23.83;21.23;;;;;;;21.81;61.65;101210.63;7395443;19;20090;-69
2023/05/21 08:57:56;;;;;;;22.88;20.52;;;;;;;21.91;61.40;101214.47;7397172;19;20354;-68
2023/05/21 09:00:27;;;;;;;23.73;20.88;;;;;;;22.02;61.43;101207.59;7397355;19;20018;-69
2023/05/21 09:02:56;;;;;;;22.45;20.17;;;;;;;22.12;60.97;101198.88;7397068;19;20027;-68
2023/05/21 09:05:26;;;;;;;24.67;22.17;;;;;;;22.24;61.06;101201.75;7397168;19;20032;-68
2023/05/21 09:08:03;;;;;;;22.42;20.15;;;;;;;22.31;60.50;101188.88;7397207;19;20023;-68
2023/05/21 09:10:37;;;;;;;22.23;19.33;;;;;;;22.43;59.55;101196.97;7397490;19;20019;-68
2023/05/21 09:13:06;;;;;;;21.60;18.92;;;;;;;22.52;59.75;101203.53;7397033;19;20022;-68
2023/05/21 09:15:38;;;;;;;20.58;18.40;;;;;;;22.60;58.83;101197.69;7394984;19;20035;-68
2023/05/21 09:18:07;;;;;;;20.63;18.52;;;;;;;22.68;58.53;101197.19;7396396;19;20018;-69
2023/05/21 09:20:35;;;;;;;21.73;17.73;;;;;;;22.77;58.43;101199.25;7396033;19;20474;-69
2023/05/21 09:23:05;;;;;;;22.92;18.77;;;;;;;22.87;57.70;101199.50;7395978;19;20019;-69
2023/05/21 09:25:34;;;;;;;21.88;19.65;;;;;;;22.98;57.35;101196.13;7395605;19;20020;-69
2023/05/21 09:28:03;;;;;;;21.55;18.63;;;;;;;23.09;57.49;101198.94;7396387;19;20014;-68
2023/05/21 09:30:31;;;;;;;21.88;18.55;;;;;;;23.20;56.95;101198.22;7396350;19;20027;-69
2023/05/21 09:33:03;;;;;;;28.98;17.52;;;;;;;23.31;56.39;101197.50;7395499;19;20086;-69
2023/05/21 09:35:31;;;;;;;20.60;18.40;;;;;;;23.42;55.92;101195.78;7394281;19;20007;-69
2023/05/21 09:38:00;;;;;;;20.48;18.48;;;;;;;23.53;55.60;101195.03;7395582;19;20027;-69
2023/05/21 09:40:29;;;;;;;19.50;17.08;;;;;;;23.66;55.09;101186.16;7396911;19;20015;-69
2023/05/21 09:42:57;;;;;;;20.02;18.02;;;;;;;23.78;54.63;101182.59;7394773;19;20037;-69
2023/05/21 09:45:27;;;;;;;21.50;19.20;;;;;;;23.90;54.72;101188.91;7395792;19;20011;-68
2023/05/21 09:47:57;;;;;;;19.67;17.65;;;;;;;24.01;54.74;101181.00;7395713;19;20018;-68
2023/05/21 09:50:36;;;;;;;20.20;17.65;;;;;;;24.13;54.42;101176.56;7395304;19;20018;-68
2023/05/21 09:53:04;;;;;;;21.83;16.55;;;;;;;24.27;53.70;101182.75;7394903;19;20018;-68
2023/05/21 09:55:33;;;;;;;19.27;16.23;;;;;;;24.36;52.81;101174.03;7393963;19;20039;-68
2023/05/21 09:58:03;;;;;;;17.45;15.60;;;;;;;24.47;52.74;101168.75;7395658;19;20014;-69
2023/05/21 10:00:33;;;;;;;17.08;14.77;;;;;;;24.58;52.32;101172.44;7395959;19;20093;-68
2023/05/21 10:03:03;;;;;;;18.52;16.67;;;;;;;24.71;51.46;101175.97;7394227;19;20524;-69
2023/05/21 10:05:35;;;;;;;17.85;15.75;;;;;;;24.83;51.09;101175.06;7395064;19;20024;-69
2023/05/21 10:08:13;;;;;;;16.33;14.68;;;;;;;24.95;50.00;101169.72;7396094;19;20014;-69
2023/05/21 10:10:44;;;;;;;18.70;15.80;;;;;;;25.04;50.32;101171.69;7395250;19;20025;-69
2023/05/21 10:13:16;;;;;;;14.90;13.35;;;;;;;25.15;49.91;101168.19;7395441;19;20023;-69
2023/05/21 10:15:47;;;;;;;17.65;13.23;;;;;;;25.23;49.16;101167.63;7393185;19;20014;-68
2023/05/21 10:18:17;;;;;;;14.40;12.88;;;;;;;25.27;48.75;101161.03;7394376;19;20014;-69
2023/05/21 10:20:48;;;;;;;15.23;12.85;;;;;;;25.39;48.28;101162.78;7394527;19;20083;-67
2023/05/21 10:23:17;;;;;;;13.95;12.48;;;;;;;25.48;47.85;101162.06;7393767;19;20025;-68
2023/05/21 10:25:47;;;;;;;13.88;12.50;;;;;;;25.58;47.58;101162.19;7394224;19;20082;-68
2023/05/21 10:28:18;;;;;;;14.70;12.15;;;;;;;25.67;46.32;101149.88;7394649;19;20029;-68
2023/05/21 10:30:48;;;;;;;12.98;11.75;;;;;;;25.84;46.28;101143.13;7394106;19;20015;-68
2023/05/21 10:33:17;;;;;;;14.48;12.75;;;;;;;25.90;45.67;101139.94;7393418;19;20010;-68
2023/05/21 10:35:51;;;;;;;14.32;12.88;;;;;;;26.01;45.47;101149.84;7392353;19;20478;-68
2023/05/21 10:38:21;;;;;;;14.63;11.95;;;;;;;26.09;45.71;101144.72;7400713;19;20031;-67
2023/05/21 10:40:51;;;;;;;13.25;11.95;;;;;;;26.15;45.33;101149.59;7401621;19;20500;-68
2023/05/21 10:43:35;;;;;;;13.32;10.55;;;;;;;26.16;44.15;101140.56;7399924;19;20018;-68
2023/05/21 10:46:26;;;;;;;14.27;12.10;;;;;;;26.17;44.43;101141.41;7402215;19;20028;-68
2023/05/21 10:49:06;;;;;;;12.85;10.95;;;;;;;26.17;44.07;101139.59;7402094;19;20014;-68
2023/05/21 10:51:50;;;;;;;13.10;10.88;;;;;;;26.17;43.08;101134.22;7401679;19;20031;-68
2023/05/21 10:54:39;;;;;;;11.95;10.77;;;;;;;26.17;43.57;101131.53;7399330;19;20022;-68
2023/05/21 10:57:21;;;;;;;14.10;11.00;;;;;;;26.21;43.43;101126.75;7401877;19;20090;-68
2023/05/21 10:59:51;;;;;;;11.68;10.55;;;;;;;26.26;43.35;101118.28;7401870;19;20018;-69
2023/05/21 11:02:21;;;;;;;10.93;9.15;;;;;;;26.37;42.86;101125.47;7401430;19;20010;-69
2023/05/21 11:04:50;;;;;;;11.27;9.77;;;;;;;26.44;42.50;101121.31;7397834;19;20018;-69
2023/05/21 11:07:25;;;;;;;11.75;10.57;;;;;;;26.53;42.35;101125.03;7400901;19;20011;-69
2023/05/21 11:09:54;;;;;;;14.80;9.85;;;;;;;26.62;42.49;101124.28;7400571;19;20019;-69
2023/05/21 11:12:25;;;;;;;10.60;9.50;;;;;;;26.71;42.36;101120.81;7400606;19;20037;-68
2023/05/21 11:14:58;;;;;;;12.52;9.82;;;;;;;26.82;41.35;101120.78;7397413;19;20031;-69
2023/05/21 11:17:43;;;;;;;10.15;9.25;;;;;;;26.96;40.47;101116.06;7401083;19;20022;-68
2023/05/21 11:20:14;;;;;;;13.23;9.70;;;;;;;27.10;41.28;101118.41;7401024;19;20018;-69
2023/05/21 11:22:47;;;;;;;13.65;8.85;;;;;;;27.25;40.71;101113.53;7400687;19;20015;-69